Terminal Aerodrome Forecast
Issued by NWS Mt. Holly, NJ

Home | Current Version | Previous Version | Text Only | Print | Product List | Glossary On
Versions: 1 2 3 4 5 6 7 8 9 10 11 12 13 14 15 16 17 18
000
FTUS41 KPHI 240523
TAFILG
TAF
KILG 240523Z 2406/2506 16004KT P6SM FEW250
     FM241400 19007KT P6SM SCT090 BKN100
      TEMPO 2416/2418 4SM -RA OVC025
     FM241800 20012KT P6SM BKN050 OVC100
     FM250000 22007KT P6SM SCT070 BKN250
     FM250400 25005KT P6SM SCT130 BKN250=

USA.gov is the U.S. government's official web portal to all federal, state and local government web resources and services.